Time;durP1;ratioP1;P1;durP2;ratioP2;P2;SDS_P1;SDS_P2;PMS_P1;PMS_P2;Temp;Humidity;BMP_temperature;BMP_pressure;BME280_temperature;BME280_humidity;BME280_pressure;Samples;Min_cycle;Max_cycle;Signal;HPM_P1;HPM_P2
2022/12/22 03:32:33;;;;;;;1.83;1.50;;;;;;;8.26;94.73;95202.34;5918918;24;20300;-91
2022/12/22 04:58:34;;;;;;;;;;;;;;;;;;;;;
2022/12/22 05:08:57;;;;;;;0.80;0.80;;;;;;;8.62;100.00;95145.31;5708167;25;20207;-90
2022/12/22 05:11:23;;;;;;;0.90;0.90;;;;;;;8.65;100.00;95150.91;5722498;24;20741;-83
2022/12/22 05:13:49;;;;;;;0.87;0.87;;;;;;;8.71;100.00;95148.59;5818082;24;20238;-83
2022/12/22 05:16:17;;;;;;;0.87;0.80;;;;;;;8.73;100.00;95138.94;5997779;23;20181;-84
2022/12/22 05:18:44;;;;;;;1.70;0.80;;;;;;;8.76;100.00;95136.81;6063951;23;20193;-83
2022/12/22 05:21:13;;;;;;;1.00;0.90;;;;;;;8.75;100.00;95130.09;6065642;23;20177;-83
2022/12/22 05:23:40;;;;;;;1.43;1.07;;;;;;;8.78;100.00;95121.25;6066472;23;20833;-83
2022/12/22 05:26:08;;;;;;;3.87;0.90;;;;;;;8.79;100.00;95100.53;6081250;23;20430;-83
2022/12/22 05:28:34;;;;;;;1.43;0.90;;;;;;;8.87;100.00;95109.91;6095250;23;20176;-83
2022/12/22 05:31:04;;;;;;;1.50;0.80;;;;;;;8.84;100.00;95107.72;6096048;23;20207;-83
2022/12/22 05:33:30;;;;;;;0.80;0.80;;;;;;;8.78;100.00;95104.09;6095274;23;20184;-83
2022/12/22 05:35:57;;;;;;;0.87;0.80;;;;;;;8.80;100.00;95112.41;6096288;23;20184;-84
2022/12/22 05:38:23;;;;;;;1.33;0.80;;;;;;;8.77;100.00;95128.16;6095912;23;20638;-82
2022/12/22 05:40:49;;;;;;;1.43;0.70;;;;;;;8.79;100.00;95110.81;6096452;23;20181;-83
2022/12/22 05:43:17;;;;;;;0.77;0.77;;;;;;;8.85;99.51;95109.31;6096311;23;20239;-83
2022/12/22 05:45:44;;;;;;;0.90;0.77;;;;;;;8.88;97.77;95102.03;6095885;23;20180;-82
2022/12/22 05:48:11;;;;;;;0.70;0.70;;;;;;;8.93;97.37;95104.88;6094711;23;20184;-82
2022/12/22 05:50:37;;;;;;;0.73;0.60;;;;;;;8.97;96.67;95100.97;6093156;23;20207;-83
2022/12/22 05:53:04;;;;;;;0.80;0.80;;;;;;;9.05;95.96;95101.84;6093460;23;20184;-83
2022/12/22 05:55:30;;;;;;;1.07;0.80;;;;;;;9.06;95.84;95106.00;6095290;23;20226;-82
2022/12/22 05:58:00;;;;;;;0.70;0.70;;;;;;;9.07;95.50;95107.59;6095827;23;20180;-83
2022/12/22 06:00:29;;;;;;;0.70;0.67;;;;;;;9.04;95.11;95088.22;6094953;23;20192;-82
2022/12/22 06:02:56;;;;;;;0.73;0.70;;;;;;;9.09;94.98;95103.06;6095447;23;20176;-83
2022/12/22 06:05:22;;;;;;;1.33;0.80;;;;;;;9.07;94.74;95117.88;6095745;23;20554;-83
2022/12/22 06:07:49;;;;;;;0.80;0.80;;;;;;;9.03;94.31;95114.09;6096145;23;20591;-82
2022/12/22 06:10:16;;;;;;;1.23;0.70;;;;;;;9.00;94.35;95108.31;6094370;23;20196;-82
2022/12/22 06:12:43;;;;;;;0.67;0.67;;;;;;;9.03;93.81;95122.59;6095863;23;20200;-83
2022/12/22 06:15:11;;;;;;;1.50;0.90;;;;;;;9.02;93.19;95113.28;6096430;23;20187;-82
2022/12/22 06:17:40;;;;;;;0.80;0.80;;;;;;;8.98;93.44;95119.75;6095237;23;20207;-83
2022/12/22 06:20:08;;;;;;;1.27;1.00;;;;;;;8.92;92.91;95110.19;6096034;23;20685;-83
2022/12/22 06:22:34;;;;;;;0.80;0.80;;;;;;;8.90;92.21;95112.91;6095842;23;20176;-82
2022/12/22 06:25:00;;;;;;;1.00;0.90;;;;;;;8.89;91.47;95113.09;6096587;23;20342;-83
2022/12/22 06:27:27;;;;;;;1.10;0.80;;;;;;;8.92;91.62;95115.31;6096050;23;20211;-83
2022/12/22 06:29:53;;;;;;;1.83;0.80;;;;;;;8.93;92.03;95102.31;6095162;23;20200;-83
2022/12/22 06:32:20;;;;;;;1.10;0.97;;;;;;;9.01;90.95;95104.00;6096166;23;20625;-83
2022/12/22 06:34:47;;;;;;;0.70;0.70;;;;;;;8.99;90.10;95119.56;6096963;23;20176;-82
2022/12/22 06:37:14;;;;;;;1.00;0.80;;;;;;;9.03;89.90;95116.66;6095367;23;20181;-83
2022/12/22 06:39:40;;;;;;;0.90;0.90;;;;;;;8.99;89.81;95121.34;6094974;23;20277;-82
2022/12/22 06:44:54;;;;;;;0.80;0.80;;;;;;;9.04;89.12;95131.09;6094060;23;20224;-83
2022/12/22 06:47:20;;;;;;;1.00;0.80;;;;;;;8.95;88.84;95128.59;6095967;23;20192;-83
2022/12/22 06:49:48;;;;;;;1.83;1.27;;;;;;;8.98;88.65;95135.94;6094441;23;20534;-82
2022/12/22 06:52:15;;;;;;;1.87;0.90;;;;;;;8.98;87.97;95128.25;6095008;23;20279;-84
2022/12/22 06:54:41;;;;;;;3.23;1.00;;;;;;;9.05;87.32;95130.88;6094818;23;20187;-83
2022/12/22 06:57:08;;;;;;;1.07;0.80;;;;;;;9.08;85.83;95140.00;6095882;23;20176;-83
2022/12/22 06:59:34;;;;;;;2.33;0.80;;;;;;;9.11;86.01;95135.31;6093965;23;20200;-82
2022/12/22 07:02:01;;;;;;;0.70;0.70;;;;;;;9.16;85.35;95132.22;6095896;23;20512;-83
2022/12/22 07:04:28;;;;;;;1.10;0.70;;;;;;;9.14;83.75;95132.41;6095101;23;20216;-82
2022/12/22 07:06:56;;;;;;;0.80;0.73;;;;;;;9.19;84.08;95122.38;6094847;23;20179;-83
2022/12/22 07:09:22;;;;;;;1.37;1.00;;;;;;;9.27;83.58;95144.59;6094969;23;20728;-82
2022/12/22 07:11:49;;;;;;;2.73;0.90;;;;;;;9.30;83.60;95118.56;6095369;23;20200;-82
2022/12/22 07:14:15;;;;;;;0.80;0.80;;;;;;;9.31;83.22;95128.66;6094328;23;20180;-81
2022/12/22 07:16:42;;;;;;;1.43;0.90;;;;;;;9.42;82.89;95137.69;6096147;23;20180;-82
2022/12/22 07:19:08;;;;;;;1.00;0.80;;;;;;;9.46;82.11;95125.25;6095134;23;20211;-82
2022/12/22 07:21:34;;;;;;;2.17;1.20;;;;;;;9.51;82.09;95122.94;6095146;23;20176;-83
2022/12/22 07:24:02;;;;;;;1.50;0.90;;;;;;;9.53;81.23;95119.22;6094154;23;20182;-83
2022/12/22 07:26:29;;;;;;;2.23;0.80;;;;;;;9.59;82.20;95135.69;6093066;23;20180;-83
2022/12/22 07:28:55;;;;;;;2.10;0.80;;;;;;;9.60;81.58;95121.88;6091133;23;20259;-82
2022/12/22 07:31:22;;;;;;;1.97;0.80;;;;;;;9.60;81.51;95130.38;6091915;23;20200;-83
2022/12/22 07:33:48;;;;;;;1.10;0.90;;;;;;;9.61;81.78;95121.69;6092790;23;20201;-82
2022/12/22 07:36:17;;;;;;;2.87;0.90;;;;;;;9.62;80.96;95127.63;6094964;23;20514;-83
2022/12/22 07:38:45;;;;;;;1.97;0.93;;;;;;;9.61;81.36;95121.69;6094549;23;20207;-81
2022/12/22 07:44:00;;;;;;;1.90;0.90;;;;;;;9.65;81.51;95116.97;6095390;23;20168;-83
2022/12/22 07:46:29;;;;;;;0.70;0.70;;;;;;;9.65;81.49;95117.75;6096524;23;20522;-84
2022/12/22 07:51:41;;;;;;;2.23;1.03;;;;;;;9.75;81.13;95117.47;6095817;23;20530;-83
2022/12/22 07:54:09;;;;;;;3.97;1.10;;;;;;;9.80;80.68;95122.06;6094672;23;20507;-82
2022/12/22 07:56:37;;;;;;;1.40;1.03;;;;;;;9.78;81.02;95127.41;6098812;23;20187;-83
2022/12/22 07:59:04;;;;;;;3.27;1.10;;;;;;;9.88;80.60;95124.50;6099139;23;20197;-82
2022/12/22 08:01:30;;;;;;;1.57;0.90;;;;;;;9.96;79.84;95127.78;6097955;23;20199;-83
2022/12/22 08:03:57;;;;;;;1.47;1.10;;;;;;;10.04;79.47;95129.41;6096442;23;20546;-82
2022/12/22 08:06:23;;;;;;;1.80;1.20;;;;;;;10.09;79.11;95132.22;6097843;23;20180;-83
2022/12/22 08:08:50;;;;;;;3.33;1.00;;;;;;;10.21;78.89;95128.19;6096818;23;20209;-83
2022/12/22 08:11:17;;;;;;;2.67;1.27;;;;;;;10.32;78.41;95140.59;6096325;23;20176;-83
2022/12/22 08:13:45;;;;;;;4.67;2.77;;;;;;;10.29;76.98;95140.94;6095902;23;20665;-82
2022/12/22 08:16:13;;;;;;;1.40;0.80;;;;;;;10.30;76.90;95146.88;6096449;23;20211;-82
2022/12/22 08:18:41;;;;;;;2.47;1.20;;;;;;;10.40;75.83;95139.63;6099286;23;20180;-82
2022/12/22 08:21:08;;;;;;;1.77;0.93;;;;;;;10.45;74.27;95137.31;6100356;23;20228;-83
2022/12/22 08:23:35;;;;;;;4.93;1.40;;;;;;;10.51;73.89;95141.72;6098156;23;20180;-81
2022/12/22 08:26:05;;;;;;;1.97;1.00;;;;;;;10.70;73.78;95130.78;6097106;23;20188;-83
2022/12/22 08:28:36;;;;;;;1.00;0.90;;;;;;;10.76;72.33;95133.59;6095208;23;20180;-83
2022/12/22 08:31:04;;;;;;;2.50;1.10;;;;;;;10.78;70.82;95134.16;6095918;23;20161;-82
2022/12/22 08:33:30;;;;;;;2.00;1.00;;;;;;;10.76;70.07;95136.16;6096348;23;20204;-83
2022/12/22 08:35:58;;;;;;;1.27;0.90;;;;;;;10.70;71.67;95125.63;6096231;23;20176;-83
2022/12/22 08:38:24;;;;;;;2.63;1.20;;;;;;;10.59;71.10;95126.13;6095414;23;20164;-84
2022/12/22 08:40:51;;;;;;;1.13;0.87;;;;;;;10.44;70.10;95129.78;6096894;23;20183;-83
2022/12/22 08:43:18;;;;;;;1.57;1.00;;;;;;;10.43;70.22;95133.31;6096058;23;20184;-82
2022/12/22 08:45:45;;;;;;;1.20;0.83;;;;;;;10.44;70.46;95135.72;6095922;23;20195;-82
2022/12/22 08:48:12;;;;;;;1.70;1.17;;;;;;;10.38;69.88;95133.91;6096526;23;20231;-84
2022/12/22 08:50:39;;;;;;;2.20;1.00;;;;;;;10.37;69.68;95133.09;6097864;23;20201;-83
2022/12/22 08:53:07;;;;;;;2.03;1.10;;;;;;;10.37;69.11;95135.69;6098163;23;20196;-83
2022/12/22 08:55:34;;;;;;;2.43;0.97;;;;;;;10.41;69.30;95133.50;6097255;23;20181;-82
2022/12/22 08:58:00;;;;;;;7.63;1.53;;;;;;;10.43;69.03;95128.97;6098257;23;20196;-83
2022/12/22 09:00:27;;;;;;;2.47;1.10;;;;;;;10.44;68.72;95130.56;6099540;23;20223;-83
2022/12/22 09:02:53;;;;;;;1.40;0.80;;;;;;;10.49;69.08;95128.25;6099655;23;20187;-83
2022/12/22 09:05:21;;;;;;;2.20;1.10;;;;;;;10.51;69.26;95128.84;6098517;23;20177;-83
2022/12/22 09:07:47;;;;;;;3.37;1.13;;;;;;;10.51;68.67;95120.34;6098999;23;20188;-84
2022/12/22 09:10:14;;;;;;;5.80;1.70;;;;;;;10.51;68.37;95121.13;6100433;23;20211;-83
2022/12/22 09:12:40;;;;;;;4.90;1.60;;;;;;;10.52;68.54;95125.28;6101279;23;20204;-83
2022/12/22 09:15:08;;;;;;;10.57;1.83;;;;;;;10.52;69.26;95125.28;6101720;23;20211;-81
2022/12/22 09:17:34;;;;;;;4.83;1.40;;;;;;;10.52;68.94;95138.16;6101279;23;20176;-83
2022/12/22 09:20:01;;;;;;;9.67;2.13;;;;;;;10.53;68.65;95132.03;6101753;23;20206;-82
2022/12/22 09:22:29;;;;;;;7.23;1.30;;;;;;;10.52;69.05;95133.03;6102326;23;20180;-83
2022/12/22 09:24:55;;;;;;;4.23;1.37;;;;;;;10.56;69.02;95125.72;6103919;23;20180;-82
2022/12/22 09:27:21;;;;;;;8.10;2.07;;;;;;;10.59;69.28;95128.69;6097682;23;20220;-83
2022/12/22 09:29:48;;;;;;;13.23;1.83;;;;;;;10.60;68.77;95119.19;6095311;23;20263;-83
2022/12/22 09:32:14;;;;;;;35.10;4.23;;;;;;;10.64;68.74;95113.50;6097082;23;20196;-83
2022/12/22 09:34:41;;;;;;;17.37;3.17;;;;;;;10.66;69.29;95121.03;6098909;23;20188;-83
2022/12/22 09:37:07;;;;;;;2.50;1.00;;;;;;;10.67;68.64;95126.00;6098700;23;20176;-84
2022/12/22 09:39:35;;;;;;;2.23;1.10;;;;;;;10.70;69.26;95135.13;6098559;23;20260;-83
2022/12/22 09:42:01;;;;;;;2.93;1.10;;;;;;;10.70;69.27;95138.50;6097667;23;20223;-84
2022/12/22 09:44:32;;;;;;;3.27;1.17;;;;;;;10.67;68.94;95135.50;6097956;23;20452;-83
2022/12/22 09:47:01;;;;;;;1.27;0.80;;;;;;;10.74;69.00;95138.91;6097705;23;20527;-83
2022/12/22 09:49:28;;;;;;;2.87;0.90;;;;;;;10.75;68.85;95127.63;6097250;23;20200;-83
2022/12/22 09:51:58;;;;;;;27.60;4.03;;;;;;;10.81;69.13;95126.88;6097151;23;20183;-82
2022/12/22 09:54:25;;;;;;;5.97;1.50;;;;;;;11.12;67.84;95116.16;6098268;23;20157;-84
2022/12/22 09:56:53;;;;;;;2.73;1.03;;;;;;;11.47;66.05;95116.09;6098494;23;20176;-83
2022/12/22 09:59:21;;;;;;;4.53;1.30;;;;;;;11.48;65.76;95097.06;6097718;23;20203;-83
2022/12/22 10:02:17;;;;;;;2.87;1.00;;;;;;;11.41;65.70;95084.13;6097862;23;20237;-83
2022/12/22 10:05:01;;;;;;;9.10;1.80;;;;;;;11.39;66.38;95080.97;6068178;23;20176;-83
2022/12/22 10:07:31;;;;;;;1.87;1.00;;;;;;;11.36;66.89;95068.44;6097838;23;20161;-83
2022/12/22 10:09:58;;;;;;;3.07;1.20;;;;;;;11.31;66.70;95081.94;6098488;23;20197;-83
2022/12/22 10:12:26;;;;;;;6.77;1.73;;;;;;;11.39;66.95;95078.38;6099114;23;20204;-83
2022/12/22 10:14:54;;;;;;;2.20;1.00;;;;;;;11.40;66.65;95085.91;6097258;23;20267;-82
2022/12/22 10:17:24;;;;;;;3.00;1.10;;;;;;;11.39;66.92;95086.13;6097718;23;20164;-83
2022/12/22 10:19:53;;;;;;;3.50;1.53;;;;;;;11.40;67.57;95087.69;6097587;23;20243;-84
2022/12/22 10:22:25;;;;;;;1.27;0.83;;;;;;;11.29;66.69;95085.69;6098576;23;20176;-83
2022/12/22 10:24:52;;;;;;;1.63;0.90;;;;;;;11.26;66.81;95079.13;6098176;23;20660;-82
2022/12/22 10:27:20;;;;;;;1.20;1.00;;;;;;;11.26;67.11;95089.44;6097889;23;20188;-83
2022/12/22 10:29:48;;;;;;;1.60;0.90;;;;;;;11.34;66.91;95076.41;6097382;23;20231;-84
2022/12/22 10:32:18;;;;;;;3.87;1.20;;;;;;;11.35;66.81;95061.75;6098567;23;20200;-83
2022/12/22 10:35:02;;;;;;;2.60;1.13;;;;;;;11.32;66.21;95080.16;6097811;23;20215;-82
2022/12/22 10:37:33;;;;;;;3.83;1.13;;;;;;;11.33;66.50;95077.41;6097167;23;20176;-83
2022/12/22 10:39:59;;;;;;;2.53;1.00;;;;;;;11.35;66.28;95062.50;6096714;23;20198;-83
2022/12/22 10:42:26;;;;;;;2.90;0.90;;;;;;;11.31;65.66;95043.28;6096172;23;20223;-82
2022/12/22 10:44:54;;;;;;;3.23;1.00;;;;;;;11.30;65.60;95061.50;6097284;23;20196;-83
2022/12/22 10:47:23;;;;;;;3.20;1.00;;;;;;;11.35;65.45;95065.09;6096772;23;20184;-84
2022/12/22 10:49:51;;;;;;;3.03;1.00;;;;;;;11.45;65.81;95074.25;6094984;23;20757;-83
2022/12/22 10:52:21;;;;;;;1.87;0.90;;;;;;;11.46;64.45;95066.31;6096421;23;20204;-84
2022/12/22 10:54:47;;;;;;;1.87;1.00;;;;;;;11.44;62.80;95063.13;6097539;23;20182;-82
2022/12/22 10:57:29;;;;;;;3.60;1.13;;;;;;;11.52;62.14;95072.50;6098223;23;20188;-83
2022/12/22 10:59:59;;;;;;;2.30;1.03;;;;;;;11.55;61.83;95069.50;6097162;23;20223;-83
2022/12/22 11:02:32;;;;;;;2.70;1.10;;;;;;;11.60;62.07;95065.34;6096803;23;20172;-83
2022/12/22 11:05:06;;;;;;;1.90;1.13;;;;;;;11.57;61.22;95075.25;6099203;23;20164;-84
2022/12/22 11:07:34;;;;;;;3.27;1.20;;;;;;;11.62;61.35;95084.00;6098997;23;20184;-84
2022/12/22 11:10:01;;;;;;;3.30;1.23;;;;;;;11.59;61.48;95094.69;6099367;23;20206;-84
2022/12/22 11:12:40;;;;;;;4.63;1.30;;;;;;;11.57;63.08;95093.31;6098465;23;20686;-84
2022/12/22 11:15:22;;;;;;;2.50;0.93;;;;;;;11.48;66.41;95104.78;6098636;23;20506;-83
2022/12/22 11:17:58;;;;;;;3.27;1.00;;;;;;;11.36;67.94;95089.06;6098257;23;20164;-84
2022/12/22 11:20:34;;;;;;;2.77;1.27;;;;;;;11.20;70.69;95074.75;6097134;23;20203;-82
2022/12/22 11:23:07;;;;;;;2.10;1.70;;;;;;;11.13;71.36;95086.03;6096147;23;20557;-83
2022/12/22 11:25:48;;;;;;;2.93;1.30;;;;;;;11.07;72.05;95082.44;6096836;23;20254;-83
2022/12/22 11:28:26;;;;;;;2.23;1.00;;;;;;;11.00;72.33;95071.28;6095308;23;20192;-83
2022/12/22 11:31:12;;;;;;;1.83;1.17;;;;;;;10.99;73.21;95077.44;6098425;23;20171;-82
2022/12/22 11:33:51;;;;;;;3.40;1.67;;;;;;;10.89;73.77;95082.94;6097410;23;20184;-82
2022/12/22 11:36:29;;;;;;;3.17;1.20;;;;;;;10.79;75.87;95076.53;6096454;23;20241;-83
2022/12/22 11:39:04;;;;;;;3.50;1.27;;;;;;;10.65;76.14;95062.78;6095945;23;20204;-83
2022/12/22 11:41:53;;;;;;;2.20;1.07;;;;;;;10.63;76.71;95072.50;6095988;23;20830;-84
2022/12/22 11:44:34;;;;;;;2.83;1.30;;;;;;;10.56;76.36;95072.47;6096027;23;20220;-83
2022/12/22 11:47:11;;;;;;;2.80;1.10;;;;;;;10.55;76.84;95067.50;6095461;23;20168;-82
2022/12/22 11:50:01;;;;;;;2.77;1.20;;;;;;;10.53;77.59;95059.16;6095803;23;20196;-83
2022/12/22 11:52:44;;;;;;;1.93;1.10;;;;;;;10.58;77.91;95038.81;6096581;23;20212;-82
2022/12/22 11:55:30;;;;;;;3.23;1.20;;;;;;;10.49;76.78;95048.44;6096531;23;20180;-83
2022/12/22 11:58:07;;;;;;;2.20;1.10;;;;;;;10.61;76.42;95028.13;6095416;23;20165;-83
2022/12/22 12:00:41;;;;;;;2.93;1.40;;;;;;;10.57;75.93;95040.59;6095556;23;20669;-83
2022/12/22 12:03:39;;;;;;;2.70;1.57;;;;;;;10.60;75.80;95023.94;6097854;23;20161;-82
2022/12/22 12:06:17;;;;;;;2.90;1.30;;;;;;;10.60;74.39;95022.16;6099270;23;20160;-83
2022/12/22 12:08:58;;;;;;;2.77;1.20;;;;;;;10.70;74.84;95025.22;6097973;23;20165;-83
2022/12/22 12:11:33;;;;;;;2.70;1.53;;;;;;;10.68;73.34;95016.88;6098494;23;20560;-84
2022/12/22 12:14:10;;;;;;;4.77;1.60;;;;;;;10.71;72.98;95026.81;6098088;23;20235;-83
2022/12/22 12:16:42;;;;;;;4.53;1.30;;;;;;;10.77;72.78;95029.59;6098099;23;20192;-83
2022/12/22 12:19:41;;;;;;;3.47;1.70;;;;;;;10.79;72.73;95038.69;6096983;23;20263;-83
2022/12/22 12:22:14;;;;;;;2.67;1.40;;;;;;;10.82;72.37;95024.66;6097109;23;20168;-82
2022/12/22 12:24:53;;;;;;;4.23;1.50;;;;;;;10.83;72.04;95026.25;6098245;23;20172;-84
2022/12/22 12:27:36;;;;;;;3.03;1.30;;;;;;;10.85;71.81;95025.06;6098014;23;20195;-82
2022/12/22 12:30:05;;;;;;;4.23;1.50;;;;;;;10.91;71.61;95015.78;6096156;23;20199;-82
2022/12/22 12:32:40;;;;;;;3.43;1.60;;;;;;;10.95;70.46;95011.84;6098243;23;20571;-83
2022/12/22 12:35:26;;;;;;;5.53;2.03;;;;;;;10.99;69.87;95008.69;6100734;23;20793;-85
2022/12/22 12:38:00;;;;;;;5.23;1.67;;;;;;;11.06;70.16;95030.13;6098822;23;20539;-83
2022/12/22 12:40:34;;;;;;;2.13;1.27;;;;;;;11.08;69.67;95009.31;6099761;23;20300;-84
2022/12/22 12:43:03;;;;;;;2.87;1.20;;;;;;;11.13;70.61;95017.25;6100438;23;20210;-83
2022/12/22 12:45:34;;;;;;;4.43;1.33;;;;;;;11.11;70.70;95019.25;6100629;23;20179;-83
2022/12/22 12:48:34;;;;;;;4.50;1.70;;;;;;;11.07;70.26;95018.81;6098578;23;20247;-83
2022/12/22 12:51:01;;;;;;;4.70;1.60;;;;;;;11.12;69.58;95015.66;6097090;23;20161;-83
2022/12/22 12:53:29;;;;;;;3.13;1.33;;;;;;;11.14;67.87;95008.56;6097927;23;20200;-84
2022/12/22 12:55:58;;;;;;;3.47;1.30;;;;;;;11.17;67.45;95018.44;6097845;23;20180;-84
2022/12/22 12:58:48;;;;;;;4.17;1.30;;;;;;;11.24;67.11;95026.19;6098687;23;20235;-84
2022/12/22 13:01:57;;;;;;;4.83;1.93;;;;;;;11.31;67.12;95020.09;6097927;23;20190;-83
2022/12/22 13:05:10;;;;;;;3.30;1.63;;;;;;;11.30;66.86;95023.66;6097956;23;20179;-84
2022/12/22 13:08:07;;;;;;;5.60;1.60;;;;;;;11.28;66.01;95014.53;6098011;23;20276;-83
2022/12/22 13:10:36;;;;;;;2.87;1.27;;;;;;;11.29;65.93;95024.63;6097785;23;20200;-84
2022/12/22 13:13:03;;;;;;;2.53;1.20;;;;;;;11.30;65.40;95026.22;6097403;23;20207;-84
2022/12/22 13:15:32;;;;;;;3.40;1.77;;;;;;;11.34;65.51;95026.66;6097055;23;20179;-84
2022/12/22 13:17:59;;;;;;;3.27;1.43;;;;;;;11.35;65.58;95030.81;6096420;23;20180;-83
2022/12/22 13:20:29;;;;;;;4.70;1.53;;;;;;;11.33;64.94;95038.72;6097887;23;20200;-84
2022/12/22 13:22:59;;;;;;;2.87;1.20;;;;;;;11.33;64.63;95036.16;6097718;23;20561;-85
2022/12/22 13:25:39;;;;;;;4.97;1.40;;;;;;;11.33;64.69;95043.88;6097931;23;20247;-84
2022/12/22 13:28:09;;;;;;;4.53;1.40;;;;;;;11.36;64.73;95038.31;6097011;23;20160;-84
2022/12/22 13:30:37;;;;;;;3.50;1.50;;;;;;;11.40;64.83;95043.88;6097036;23;20228;-84
2022/12/22 13:33:03;;;;;;;4.93;1.67;;;;;;;11.35;64.55;95033.38;6097083;23;20869;-84
2022/12/22 13:35:35;;;;;;;3.00;1.33;;;;;;;11.37;64.76;95060.53;6097527;23;20649;-84
2022/12/22 13:38:02;;;;;;;4.63;1.70;;;;;;;11.35;64.75;95033.38;6097548;23;20231;-84
2022/12/22 13:40:32;;;;;;;4.83;1.83;;;;;;;11.37;64.71;95042.50;6098604;23;20201;-84
2022/12/22 13:43:04;;;;;;;5.17;1.80;;;;;;;11.36;64.89;95040.09;6098544;23;20177;-83
2022/12/22 13:45:38;;;;;;;3.50;1.60;;;;;;;11.35;64.60;95047.03;6097953;23;20157;-83
2022/12/22 13:48:12;;;;;;;5.37;1.83;;;;;;;11.34;64.41;95032.59;6097594;23;20164;-84
2022/12/22 13:50:43;;;;;;;4.03;1.60;;;;;;;11.33;64.54;95038.72;6097814;23;20574;-84
2022/12/22 13:53:15;;;;;;;5.90;2.07;;;;;;;11.40;65.01;95031.78;6097517;23;20196;-84
2022/12/22 13:55:47;;;;;;;3.63;1.40;;;;;;;11.37;65.01;95037.34;6097810;23;20172;-84
2022/12/22 13:58:25;;;;;;;4.37;2.03;;;;;;;11.40;65.23;95036.94;6097246;23;20172;-84
2022/12/22 14:01:01;;;;;;;5.00;1.67;;;;;;;11.40;64.70;95039.53;6097097;23;20204;-84
2022/12/22 14:03:27;;;;;;;5.00;2.10;;;;;;;11.36;64.64;95040.91;6095934;23;20211;-83
2022/12/22 14:05:53;;;;;;;6.53;2.20;;;;;;;11.38;64.45;95041.50;6096945;23;20180;-84
2022/12/22 14:08:23;;;;;;;6.13;2.20;;;;;;;11.43;64.64;95064.13;6096689;23;20670;-83
2022/12/22 14:10:52;;;;;;;4.17;1.70;;;;;;;11.43;63.96;95048.66;6096390;23;20227;-83
2022/12/22 14:13:22;;;;;;;2.87;1.40;;;;;;;11.46;63.70;95053.44;6096653;23;20176;-83
2022/12/22 14:15:59;;;;;;;3.80;1.57;;;;;;;11.48;63.84;95059.19;6095831;23;20164;-84
2022/12/22 14:18:26;;;;;;;8.23;1.87;;;;;;;11.53;63.50;95061.19;6095627;23;20475;-83
2022/12/22 14:20:53;;;;;;;5.50;1.80;;;;;;;11.52;63.09;95054.44;6095177;23;20204;-83
2022/12/22 14:23:23;;;;;;;3.83;1.83;;;;;;;11.48;63.32;95048.88;6094969;23;20172;-83
2022/12/22 14:25:53;;;;;;;4.57;1.67;;;;;;;11.47;63.39;95056.81;6095719;23;20184;-85
2022/12/22 14:28:22;;;;;;;5.43;1.90;;;;;;;11.48;63.28;95091.91;6093872;23;20176;-85
2022/12/22 14:30:52;;;;;;;6.47;1.57;;;;;;;11.43;63.15;95082.16;6095197;23;20527;-84
2022/12/22 14:33:28;;;;;;;5.30;1.80;;;;;;;11.45;63.42;95057.00;6095192;23;20176;-83
2022/12/22 14:36:12;;;;;;;4.43;1.93;;;;;;;11.43;63.38;95074.44;6095904;23;20281;-83
2022/12/22 14:38:42;;;;;;;4.23;2.03;;;;;;;11.42;63.53;95083.94;6094930;23;20164;-83
2022/12/22 14:41:40;;;;;;;5.30;2.10;;;;;;;11.43;63.42;95097.63;6095814;23;20642;-84
2022/12/22 14:44:01;;;;;;;6.20;2.47;;;;;;;11.42;63.71;95089.09;6094801;23;20177;-84
2022/12/22 14:46:27;;;;;;;6.60;2.10;;;;;;;11.38;63.55;95092.25;6096017;23;20180;-83
2022/12/22 14:48:54;;;;;;;5.43;1.93;;;;;;;11.35;64.18;95082.34;6095191;23;20228;-84
2022/12/22 14:51:20;;;;;;;4.40;1.83;;;;;;;11.35;63.99;95096.00;6095603;23;20188;-83
2022/12/22 14:53:49;;;;;;;7.60;2.50;;;;;;;11.38;64.16;95097.41;6094152;23;20191;-84
2022/12/22 14:56:17;;;;;;;5.30;1.57;;;;;;;11.35;63.93;95115.84;6094368;23;20187;-83
2022/12/22 14:58:46;;;;;;;5.10;2.00;;;;;;;11.35;64.55;95085.69;6093999;23;20187;-83
2022/12/22 15:01:16;;;;;;;5.93;2.07;;;;;;;11.40;64.51;95109.13;6094028;23;20182;-84
2022/12/22 15:03:43;;;;;;;6.10;2.27;;;;;;;11.43;64.61;95103.59;6092394;23;20175;-83
2022/12/22 15:06:33;;;;;;;6.27;2.37;;;;;;;11.45;64.71;95116.28;6096416;23;20562;-83
2022/12/22 15:09:10;;;;;;;9.73;2.97;;;;;;;11.43;65.04;95111.31;6095237;23;20238;-83
2022/12/22 15:11:42;;;;;;;8.97;2.50;;;;;;;11.40;65.24;95124.59;6096065;23;20164;-84
2022/12/22 15:14:12;;;;;;;7.33;2.70;;;;;;;11.35;65.19;95129.50;6096544;23;20190;-83
2022/12/22 15:16:38;;;;;;;6.20;2.50;;;;;;;11.34;65.10;95127.94;6095383;23;20180;-84
2022/12/22 15:19:05;;;;;;;6.50;2.40;;;;;;;11.33;64.91;95126.34;6095399;23;20227;-84
2022/12/22 15:21:35;;;;;;;6.40;2.03;;;;;;;11.36;65.27;95128.53;6096142;23;20180;-83
2022/12/22 15:24:03;;;;;;;7.20;2.00;;;;;;;11.36;65.13;95118.22;6095289;23;20599;-83
2022/12/22 15:26:30;;;;;;;4.97;1.97;;;;;;;11.42;65.14;95126.97;6095481;23;20219;-84
2022/12/22 15:28:58;;;;;;;4.77;2.10;;;;;;;11.38;64.94;95120.59;6095209;23;20208;-83
2022/12/22 15:31:24;;;;;;;7.13;1.97;;;;;;;11.37;65.05;95127.53;6095343;23;20199;-84
2022/12/22 15:33:50;;;;;;;5.20;1.70;;;;;;;11.40;64.89;95121.22;6096750;23;20224;-84
2022/12/22 15:36:17;;;;;;;4.00;1.80;;;;;;;11.39;64.69;95127.34;6096739;23;20180;-84
2022/12/22 15:38:43;;;;;;;5.03;1.97;;;;;;;11.39;64.75;95140.25;6095557;23;20180;-83
2022/12/22 15:41:09;;;;;;;6.77;2.40;;;;;;;11.39;64.75;95127.34;6095451;23;20180;-83
2022/12/22 15:43:36;;;;;;;4.70;2.20;;;;;;;11.33;64.69;95125.56;6096366;23;20213;-83
2022/12/22 15:46:06;;;;;;;5.63;2.00;;;;;;;11.34;64.89;95134.88;6095497;23;20192;-84
2022/12/22 15:48:35;;;;;;;5.07;1.73;;;;;;;11.34;64.71;95129.72;6095050;23;20180;-84
2022/12/22 15:51:03;;;;;;;5.10;1.77;;;;;;;11.27;64.95;95131.47;6096388;23;20646;-84
2022/12/22 15:53:31;;;;;;;9.30;2.30;;;;;;;11.33;64.96;95131.50;6096389;23;20176;-84
2022/12/22 15:55:58;;;;;;;4.70;1.80;;;;;;;11.33;65.44;95123.00;6096142;23;20385;-83
2022/12/22 15:58:27;;;;;;;7.30;2.13;;;;;;;11.27;65.40;95116.00;6096250;23;20231;-84
2022/12/22 16:00:54;;;;;;;4.80;1.57;;;;;;;11.24;66.00;95114.59;6096412;23;20203;-84
2022/12/22 16:03:21;;;;;;;5.03;2.03;;;;;;;11.27;66.33;95127.13;6096773;23;20180;-83
2022/12/22 16:05:48;;;;;;;4.17;2.07;;;;;;;11.27;66.42;95123.75;6097808;23;20176;-84
2022/12/22 16:08:19;;;;;;;4.60;1.70;;;;;;;11.28;66.63;95139.00;6095580;23;20176;-83
2022/12/22 16:10:46;;;;;;;5.03;1.67;;;;;;;11.25;66.89;95131.66;6096385;23;20682;-84
2022/12/22 16:13:15;;;;;;;6.13;1.93;;;;;;;11.29;67.32;95144.97;6097183;23;20176;-84
2022/12/22 16:15:42;;;;;;;3.93;1.40;;;;;;;11.29;66.96;95137.22;6096348;23;20259;-83
2022/12/22 16:18:11;;;;;;;4.67;1.70;;;;;;;11.26;67.17;95148.72;6097402;23;20188;-84
2022/12/22 16:20:41;;;;;;;4.53;1.70;;;;;;;11.23;66.98;95150.88;6096683;23;20203;-84
2022/12/22 16:23:15;;;;;;;4.30;1.50;;;;;;;11.26;67.51;95148.72;6095291;23;20180;-84
2022/12/22 16:25:44;;;;;;;4.13;1.70;;;;;;;11.16;68.01;95147.50;6097356;23;20190;-83
2022/12/22 16:28:15;;;;;;;5.00;1.97;;;;;;;11.20;67.93;95146.91;6097764;23;20176;-83
2022/12/22 16:30:42;;;;;;;3.83;1.67;;;;;;;11.12;67.75;95151.44;6097832;23;20204;-84
2022/12/22 16:33:10;;;;;;;7.23;1.83;;;;;;;11.15;67.86;95144.13;6098233;23;20168;-85
2022/12/22 16:35:38;;;;;;;5.23;1.87;;;;;;;11.19;67.82;95157.38;6098280;23;20207;-85
2022/12/22 16:38:05;;;;;;;4.77;1.50;;;;;;;11.14;67.76;95150.25;6097561;23;20176;-84
2022/12/22 16:40:33;;;;;;;6.80;1.70;;;;;;;11.14;67.78;95157.19;6097507;23;20200;-84
2022/12/22 16:43:04;;;;;;;4.07;1.77;;;;;;;11.05;68.03;95180.50;6097074;23;20177;-84
2022/12/22 16:45:34;;;;;;;5.57;1.80;;;;;;;11.13;67.88;95153.03;6095890;23;20157;-83
2022/12/22 16:48:05;;;;;;;5.73;2.30;;;;;;;11.14;67.69;95157.97;6096133;23;20164;-83
2022/12/22 16:50:32;;;;;;;4.83;1.60;;;;;;;11.16;67.91;95158.56;6096614;23;20203;-83
2022/12/22 16:53:01;;;;;;;5.83;2.20;;;;;;;11.17;68.39;95159.34;6096399;23;20180;-83
2022/12/22 16:55:28;;;;;;;5.10;2.13;;;;;;;11.16;68.10;95168.88;6095876;23;20210;-83
2022/12/22 16:57:55;;;;;;;5.33;1.97;;;;;;;11.10;68.13;95189.47;6097343;23;20180;-83
2022/12/22 17:00:24;;;;;;;5.60;2.40;;;;;;;11.08;68.38;95169.84;6097606;23;20196;-84
2022/12/22 17:02:53;;;;;;;5.13;1.83;;;;;;;11.05;68.55;95167.63;6097565;23;20176;-85